createdAt,value
2023-03-22T00:01:34.769Z,101097.22
2023-03-22T00:04:04.791Z,101100.13
2023-03-22T00:06:31.362Z,101087.63
2023-03-22T00:08:57.952Z,101088.44
2023-03-22T00:11:29.854Z,101094.53
2023-03-22T00:13:58.930Z,101086.84
2023-03-22T00:16:28.913Z,101083.97
2023-03-22T00:18:58.416Z,101074.38
2023-03-22T00:21:27.184Z,101074.06
2023-03-22T00:23:54.147Z,101070.50
2023-03-22T00:26:20.710Z,101070.06
2023-03-22T00:28:47.216Z,101066.53
2023-03-22T00:31:16.565Z,101056.13
2023-03-22T00:33:43.055Z,101062.66
2023-03-22T00:36:11.968Z,101047.47
2023-03-22T00:38:44.213Z,101053.88
2023-03-22T00:41:26.545Z,101053.53
2023-03-22T00:43:55.129Z,101049.25
2023-03-22T00:46:23.411Z,101052.94
2023-03-22T00:48:52.020Z,101054.69
2023-03-22T00:51:20.801Z,101044.75
2023-03-22T00:53:50.935Z,101049.22
2023-03-22T00:56:23.128Z,101037.88
2023-03-22T00:58:52.536Z,101036.75
2023-03-22T01:01:19.402Z,101040.44
2023-03-22T01:03:50.617Z,101033.41
2023-03-22T01:06:17.898Z,101023.00
2023-03-22T01:08:46.937Z,101025.06
2023-03-22T01:11:14.434Z,101016.91
2023-03-22T01:13:43.887Z,101012.94
2023-03-22T01:16:12.033Z,101011.31
2023-03-22T01:18:40.818Z,100992.28
2023-03-22T01:21:08.002Z,100988.75
2023-03-22T01:23:34.973Z,100994.34
2023-03-22T01:26:02.027Z,100985.34
2023-03-22T01:28:31.554Z,100988.44
2023-03-22T01:31:02.238Z,100982.19
2023-03-22T01:33:30.681Z,100980.72
2023-03-22T01:35:59.800Z,100971.13
2023-03-22T01:38:31.380Z,100965.53
2023-03-22T01:40:58.040Z,100960.25
2023-03-22T01:43:24.660Z,100957.84
2023-03-22T01:45:52.824Z,100950.16
2023-03-22T01:48:25.530Z,100946.50
2023-03-22T01:50:59.920Z,100948.25
2023-03-22T01:53:27.793Z,100945.34
2023-03-22T01:56:00.605Z,100940.53
2023-03-22T01:58:27.578Z,100929.16
2023-03-22T02:00:55.702Z,100930.41
2023-03-22T02:03:37.808Z,100919.22
2023-03-22T02:06:07.220Z,100909.78
2023-03-22T02:08:33.980Z,100908.44
2023-03-22T02:11:02.071Z,100904.94
2023-03-22T02:13:48.888Z,100899.97
2023-03-22T02:16:33.812Z,100895.19
2023-03-22T02:19:24.220Z,100889.09
2023-03-22T02:22:15.780Z,100886.38
2023-03-22T02:25:04.316Z,100887.50
2023-03-22T02:28:00.979Z,100886.88
2023-03-22T02:31:04.433Z,100881.75
2023-03-22T02:33:42.713Z,100880.31
2023-03-22T02:36:30.971Z,100876.16
2023-03-22T02:39:00.459Z,100873.44
2023-03-22T02:41:45.946Z,100868.13
2023-03-22T02:44:39.859Z,100862.03
2023-03-22T02:47:21.848Z,100855.00
2023-03-22T02:50:10.170Z,100850.50
2023-03-22T02:52:42.454Z,100850.50
2023-03-22T02:55:51.037Z,100845.56
2023-03-22T02:58:33.626Z,100835.31
2023-03-22T03:01:06.937Z,100845.56
2023-03-22T03:03:39.926Z,100829.56
2023-03-22T03:06:14.928Z,100828.91
2023-03-22T03:08:45.275Z,100832.44
2023-03-22T03:11:16.313Z,100831.03
2023-03-22T03:13:47.630Z,100825.75
2023-03-22T03:16:17.997Z,100824.16
2023-03-22T03:18:54.113Z,100837.75
2023-03-22T03:21:56.928Z,100826.72
2023-03-22T03:24:23.381Z,100828.63
2023-03-22T03:27:08.655Z,100828.47
2023-03-22T03:30:00.176Z,100835.97
2023-03-22T03:32:42.371Z,100835.78
2023-03-22T03:35:22.802Z,100835.59
2023-03-22T03:37:58.993Z,100833.22
2023-03-22T03:40:32.578Z,100829.28
2023-03-22T03:43:02.935Z,100829.56
2023-03-22T03:45:30.326Z,100826.56
2023-03-22T03:48:03.149Z,100833.91
2023-03-22T03:50:33.513Z,100831.63
2023-03-22T03:53:02.783Z,100825.72
2023-03-22T03:55:31.198Z,100821.72
2023-03-22T03:58:00.280Z,100817.06
2023-03-22T04:00:29.434Z,100822.19
2023-03-22T04:02:56.069Z,100823.59
2023-03-22T04:05:22.541Z,100819.53
2023-03-22T04:07:55.597Z,100825.13
2023-03-22T04:10:22.157Z,100820.63
2023-03-22T04:12:50.242Z,100817.91
2023-03-22T04:15:17.015Z,100818.41
2023-03-22T04:17:46.506Z,100816.66
2023-03-22T04:20:21.846Z,100812.31
2023-03-22T04:22:49.612Z,100818.84
2023-03-22T04:25:22.724Z,100814.19
2023-03-22T04:27:51.161Z,100820.72
2023-03-22T04:30:21.551Z,100807.13
2023-03-22T04:32:48.600Z,100803.75
2023-03-22T04:35:17.718Z,100797.94
2023-03-22T04:37:45.653Z,100801.75
2023-03-22T04:40:16.553Z,100798.06
2023-03-22T04:42:44.762Z,100793.09
2023-03-22T04:45:11.968Z,100786.03
2023-03-22T04:47:41.096Z,100789.03
2023-03-22T04:50:11.218Z,100785.50
2023-03-22T04:52:37.676Z,100793.81
2023-03-22T04:55:08.421Z,100780.38
2023-03-22T04:57:35.715Z,100782.78
2023-03-22T05:00:07.530Z,100780.38
2023-03-22T05:02:41.353Z,100783.56
2023-03-22T05:05:08.212Z,100781.59
2023-03-22T05:07:34.731Z,100773.03
2023-03-22T05:10:01.208Z,100777.19
2023-03-22T05:12:33.685Z,100763.75
2023-03-22T05:15:04.276Z,100759.59
2023-03-22T05:17:30.825Z,100766.84
2023-03-22T05:19:58.392Z,100767.44
2023-03-22T05:22:27.280Z,100770.81
2023-03-22T05:24:53.715Z,100776.03
2023-03-22T05:27:31.778Z,100775.41
2023-03-22T05:29:58.218Z,100765.31
2023-03-22T05:32:31.793Z,100765.47
2023-03-22T05:34:58.378Z,100765.47
2023-03-22T05:37:27.168Z,100762.03
2023-03-22T05:40:01.078Z,100755.31
2023-03-22T05:42:27.698Z,100754.84
2023-03-22T05:44:54.499Z,100759.00
2023-03-22T05:47:27.001Z,100763.06
2023-03-22T05:49:53.585Z,100758.53
2023-03-22T05:52:20.092Z,100761.47
2023-03-22T05:54:48.790Z,100756.66
2023-03-22T05:57:16.992Z,100759.19
2023-03-22T05:59:48.058Z,100745.41
2023-03-22T06:02:14.710Z,100741.06
2023-03-22T06:04:46.625Z,100744.94
2023-03-22T06:07:15.872Z,100748.97
2023-03-22T06:09:42.465Z,100743.34
2023-03-22T06:12:11.435Z,100750.06
2023-03-22T06:14:40.371Z,100753.25
2023-03-22T06:17:09.455Z,100742.50
2023-03-22T06:19:40.865Z,100739.75
2023-03-22T06:22:10.617Z,100744.38
2023-03-22T06:24:37.760Z,100746.56
2023-03-22T06:27:04.470Z,100749.78
2023-03-22T06:29:33.466Z,100752.84
2023-03-22T06:32:10.201Z,100747.88
2023-03-22T06:34:42.278Z,100751.25
2023-03-22T06:37:12.050Z,100742.88
2023-03-22T06:39:38.502Z,100749.44
2023-03-22T06:42:07.990Z,100737.59
2023-03-22T06:44:34.588Z,100738.00
2023-03-22T06:47:01.752Z,100744.78
2023-03-22T06:49:31.438Z,100739.63
2023-03-22T06:51:58.622Z,100754.09
2023-03-22T06:54:26.494Z,100746.47
2023-03-22T06:56:55.458Z,100755.16
2023-03-22T06:59:24.306Z,100755.16
2023-03-22T07:01:53.295Z,100757.34
2023-03-22T07:04:20.075Z,100754.44
2023-03-22T07:06:47.040Z,100754.31
2023-03-22T07:09:16.276Z,100757.34
2023-03-22T07:11:44.997Z,100751.16
2023-03-22T07:14:12.633Z,100750.69
2023-03-22T07:16:39.270Z,100748.69
2023-03-22T07:19:06.882Z,100754.97
2023-03-22T07:21:35.714Z,100751.16
2023-03-22T07:24:03.897Z,100763.41
2023-03-22T07:26:30.791Z,100765.38
2023-03-22T07:29:01.331Z,100762.94
2023-03-22T07:31:31.552Z,100758.81
2023-03-22T07:34:02.757Z,100747.56
2023-03-22T07:36:35.069Z,100749.25
2023-03-22T07:39:02.035Z,100743.81
2023-03-22T07:41:33.305Z,100750.22
2023-03-22T07:44:11.391Z,100750.97
2023-03-22T07:46:46.023Z,100752.91
2023-03-22T07:49:12.563Z,100750.75
2023-03-22T07:51:41.181Z,100742.75
2023-03-22T07:54:12.662Z,100745.41
2023-03-22T07:56:40.583Z,100746.81
2023-03-22T07:59:07.430Z,100753.34
2023-03-22T08:01:36.140Z,100750.00
2023-03-22T08:04:03.835Z,100756.56
2023-03-22T08:06:32.743Z,100750.03
2023-03-22T08:09:00.007Z,100753.97
2023-03-22T08:11:26.607Z,100748.38
2023-03-22T08:13:57.416Z,100750.16
2023-03-22T08:16:25.261Z,100750.91
2023-03-22T08:18:52.879Z,100750.31
2023-03-22T08:21:19.415Z,100743.19
2023-03-22T08:23:48.668Z,100747.00
2023-03-22T08:26:18.782Z,100745.56
2023-03-22T08:28:45.443Z,100746.53
2023-03-22T08:31:18.597Z,100738.50
2023-03-22T08:33:50.494Z,100738.00
2023-03-22T08:36:19.611Z,100745.88
2023-03-22T08:38:49.167Z,100737.78
2023-03-22T08:41:16.240Z,100747.31
2023-03-22T08:43:43.101Z,100744.97
2023-03-22T08:46:10.187Z,100749.50
2023-03-22T08:48:42.273Z,100739.19
2023-03-22T08:51:08.935Z,100729.34
2023-03-22T08:53:36.518Z,100735.94
2023-03-22T08:56:04.088Z,100741.34
2023-03-22T08:58:38.045Z,100738.00
2023-03-22T09:01:06.699Z,100732.69
2023-03-22T09:03:38.453Z,100748.34
2023-03-22T09:06:05.730Z,100733.06
2023-03-22T09:08:38.176Z,100729.00
2023-03-22T09:11:09.224Z,100745.75
2023-03-22T09:13:38.201Z,100743.94
2023-03-22T09:16:08.832Z,100745.50
2023-03-22T09:18:39.427Z,100733.97
2023-03-22T09:21:08.823Z,100742.47
2023-03-22T09:23:38.062Z,100747.63
2023-03-22T09:26:08.985Z,100736.56
2023-03-22T09:28:38.450Z,100734.56
2023-03-22T09:31:11.711Z,100738.56
2023-03-22T09:33:41.977Z,100747.88
2023-03-22T09:36:10.053Z,100737.56
2023-03-22T09:38:36.585Z,100740.72
2023-03-22T09:41:07.054Z,100753.53
2023-03-22T09:43:45.624Z,100742.56
2023-03-22T09:46:17.731Z,100744.09
2023-03-22T09:48:48.404Z,100751.81
2023-03-22T09:51:47.580Z,100735.59
2023-03-22T09:54:27.457Z,100747.59
2023-03-22T09:57:18.785Z,100745.00
2023-03-22T10:00:00.182Z,100743.22
2023-03-22T10:02:39.032Z,100738.81
2023-03-22T10:05:21.354Z,100736.00
2023-03-22T10:07:56.570Z,100738.13
2023-03-22T10:10:26.644Z,100740.88
2023-03-22T10:12:53.058Z,100736.94
2023-03-22T10:15:42.426Z,100737.13
2023-03-22T10:18:16.922Z,100731.41
2023-03-22T10:21:13.814Z,100732.00
2023-03-22T10:23:55.320Z,100729.81
2023-03-22T10:26:29.429Z,100722.91
2023-03-22T10:29:04.086Z,100743.00
2023-03-22T10:31:32.279Z,100734.88
2023-03-22T10:34:15.239Z,100740.00
2023-03-22T10:36:46.635Z,100742.56
2023-03-22T10:39:21.635Z,100743.56
2023-03-22T10:41:52.660Z,100741.78
2023-03-22T10:44:26.481Z,100739.41
2023-03-22T10:47:00.242Z,100753.03
2023-03-22T10:49:33.612Z,100735.59
2023-03-22T10:52:09.224Z,100743.31
2023-03-22T10:54:36.771Z,100741.28
2023-03-22T10:57:03.445Z,100735.53
2023-03-22T10:59:45.777Z,100729.06
2023-03-22T11:02:30.527Z,100731.84
2023-03-22T11:05:03.067Z,100742.91
2023-03-22T11:07:45.987Z,100723.56
2023-03-22T11:10:21.740Z,100736.66
2023-03-22T11:12:52.280Z,100730.97
2023-03-22T11:15:33.703Z,100724.84
2023-03-22T11:18:20.646Z,100721.91
2023-03-22T11:21:01.888Z,100722.34
2023-03-22T11:23:33.228Z,100720.19
2023-03-22T11:26:07.750Z,100725.72
2023-03-22T11:28:50.736Z,100721.91
2023-03-22T11:31:21.204Z,100721.13
2023-03-22T11:33:59.637Z,100729.06
2023-03-22T11:36:27.653Z,100726.50
2023-03-22T11:39:07.391Z,100717.03
2023-03-22T11:41:39.434Z,100719.59
2023-03-22T11:44:12.667Z,100713.09
2023-03-22T11:46:55.082Z,100723.63
2023-03-22T11:49:27.028Z,100718.50
2023-03-22T11:51:55.593Z,100727.00
2023-03-22T11:54:34.061Z,100729.72
2023-03-22T11:57:04.507Z,100731.50
2023-03-22T11:59:37.731Z,100732.94
2023-03-22T12:02:16.421Z,100737.28
2023-03-22T12:04:47.259Z,100735.06
2023-03-22T12:07:17.488Z,100744.91
2023-03-22T12:10:00.258Z,100746.69
2023-03-22T12:12:31.922Z,100751.03
2023-03-22T12:15:27.662Z,100752.63
2023-03-22T12:18:02.922Z,100741.97
2023-03-22T12:20:56.615Z,100739.22
2023-03-22T12:23:33.268Z,100732.72
2023-03-22T12:26:28.428Z,100735.09
2023-03-22T12:29:04.049Z,100724.47
2023-03-22T12:31:40.984Z,100738.56
2023-03-22T12:34:15.848Z,100735.97
2023-03-22T12:36:47.890Z,100733.41
2023-03-22T12:39:46.200Z,100736.78
2023-03-22T12:43:00.672Z,100726.66
2023-03-22T12:45:35.166Z,100731.63
2023-03-22T12:48:18.146Z,100731.00
2023-03-22T12:50:53.387Z,100725.69
2023-03-22T12:53:29.426Z,100720.38
2023-03-22T12:55:56.695Z,100733.81
2023-03-22T12:58:26.726Z,100723.19
2023-03-22T13:00:58.886Z,100715.47
2023-03-22T13:03:38.100Z,100724.41
2023-03-22T13:06:27.324Z,100713.72
2023-03-22T13:09:16.162Z,100718.50
2023-03-22T13:12:07.698Z,100724.25
2023-03-22T13:14:52.502Z,100725.66
2023-03-22T13:17:28.503Z,100715.97
2023-03-22T13:20:07.858Z,100718.75
2023-03-22T13:22:43.578Z,100730.81
2023-03-22T13:25:10.942Z,100724.84
2023-03-22T13:27:51.282Z,100721.31
2023-03-22T13:30:24.082Z,100734.19
2023-03-22T13:33:12.127Z,100730.00
2023-03-22T13:35:55.465Z,100727.41
2023-03-22T13:38:42.618Z,100726.63
2023-03-22T13:41:25.245Z,100721.91
2023-03-22T13:43:56.973Z,100725.28
2023-03-22T13:46:23.746Z,100721.72
2023-03-22T13:48:53.592Z,100720.72
2023-03-22T13:51:23.720Z,100730.22
2023-03-22T13:54:23.856Z,100729.28
2023-03-22T13:57:00.917Z,100723.50
2023-03-22T13:59:29.828Z,100713.78
2023-03-22T14:01:59.226Z,100714.34
2023-03-22T14:04:34.861Z,100712.56
2023-03-22T14:07:15.102Z,100714.94
2023-03-22T14:09:54.393Z,100719.09
2023-03-22T14:12:56.495Z,100711.59
2023-03-22T14:15:38.260Z,100706.81
2023-03-22T14:18:23.305Z,100698.94
2023-03-22T14:20:55.006Z,100700.69
